Time;durP1;ratioP1;P1;durP2;ratioP2;P2;SDS_P1;SDS_P2;PMS_P1;PMS_P2;Temp;Humidity;BMP_temperature;BMP_pressure;BME280_temperature;BME280_humidity;BME280_pressure;Samples;Min_cycle;Max_cycle;Signal;HPM_P1;HPM_P2
2022/12/29 00:01:58;;;;;;;;;;;6.70;99.90;;;;;;5092492;28;19977;-77
2022/12/29 00:04:23;;;;;;;;;;;6.70;99.90;;;;;;5092854;28;19908;-81
2022/12/29 00:06:49;;;;;;;;;;;6.70;99.90;;;;;;5073192;28;19920;-76
2022/12/29 00:09:15;;;;;;;;;;;6.70;99.90;;;;;;5092403;28;20436;-77
2022/12/29 00:11:41;;;;;;;;;;;6.70;99.90;;;;;;5074146;28;20272;-82
2022/12/29 00:16:55;;;;;;;;;;;6.70;99.90;;;;;;5092123;28;19957;-77
2022/12/29 00:36:00;;;;;;;;;;;6.60;99.90;;;;;;5096257;28;19915;-78
2022/12/29 00:44:07;;;;;;;;;;;6.60;99.90;;;;;;5112024;28;20024;-77
2022/12/29 00:46:33;;;;;;;;;;;6.60;99.90;;;;;;5111948;28;20010;-77
2022/12/29 00:51:43;;;;;;;;;;;6.60;99.90;;;;;;5111311;28;20048;-80
2022/12/29 00:54:08;;;;;;;;;;;6.50;99.90;;;;;;5112341;28;19950;-77
2022/12/29 00:56:34;;;;;;;;;;;6.50;99.90;;;;;;5109696;28;19912;-77
2022/12/29 00:59:04;;;;;;;;;;;6.60;99.90;;;;;;5072134;28;20063;-78
2022/12/29 01:01:30;;;;;;;;;;;6.50;99.90;;;;;;5073289;28;19916;-78
2022/12/29 01:03:55;;;;;;;;;;;6.50;99.90;;;;;;5072599;28;20374;-78
2022/12/29 01:06:21;;;;;;;;;;;6.60;99.90;;;;;;5090969;28;19919;-77
2022/12/29 01:10:09;;;;;;;;;;;6.50;99.90;;;;;;5090600;28;20034;-78
2022/12/29 01:11:32;;;;;;;;;;;6.50;99.90;;;;;;5092535;28;20423;-80
2022/12/29 01:13:58;;;;;;;;;;;6.50;99.90;;;;;;5111565;28;19912;-80
2022/12/29 01:16:23;;;;;;;;;;;6.50;99.90;;;;;;5111595;28;19931;-80
2022/12/29 01:18:49;;;;;;;;;;;6.50;99.90;;;;;;5097786;28;19912;-80
2022/12/29 01:21:14;;;;;;;;;;;6.50;99.90;;;;;;5091262;28;19923;-79
2022/12/29 01:23:40;;;;;;;;;;;6.60;99.90;;;;;;5091824;28;19909;-82
2022/12/29 01:26:12;;;;;;;;;;;6.60;99.90;;;;;;5090835;28;19998;-78
2022/12/29 01:28:41;;;;;;;;;;;6.60;99.90;;;;;;5091174;28;19920;-79
2022/12/29 01:31:07;;;;;;;;;;;6.50;99.90;;;;;;5072814;28;19999;-79
2022/12/29 01:33:33;;;;;;;;;;;6.60;99.90;;;;;;5090981;28;19944;-79
2022/12/29 01:36:02;;;;;;;;;;;6.50;99.90;;;;;;5091255;28;20032;-79
2022/12/29 01:38:27;;;;;;;;;;;6.60;99.90;;;;;;5091559;28;19976;-79
2022/12/29 01:40:53;;;;;;;;;;;6.50;99.90;;;;;;5091254;28;20392;-79
2022/12/29 01:43:19;;;;;;;;;;;6.50;99.90;;;;;;5091226;28;19912;-78
2022/12/29 01:45:48;;;;;;;;;;;6.50;99.90;;;;;;5091581;28;20034;-82
2022/12/29 01:48:13;;;;;;;;;;;6.50;99.90;;;;;;5099033;28;19999;-80
2022/12/29 01:50:41;;;;;;;;;;;6.50;99.90;;;;;;5116285;28;20000;-79
2022/12/29 01:53:12;;;;;;;;;;;6.50;99.90;;;;;;5116146;28;20435;-79
2022/12/29 01:55:44;;;;;;;;;;;6.40;99.90;;;;;;5116448;28;20340;-79
2022/12/29 01:58:10;;;;;;;;;;;6.40;99.90;;;;;;5115967;28;20465;-80
2022/12/29 02:00:37;;;;;;;;;;;6.40;99.90;;;;;;5115723;28;20393;-79
2022/12/29 02:03:03;;;;;;;;;;;6.40;99.90;;;;;;5115991;28;19907;-80
2022/12/29 02:05:33;;;;;;;;;;;6.40;99.90;;;;;;5116970;28;19927;-79
2022/12/29 02:08:00;;;;;;;;;;;6.40;99.90;;;;;;5097745;28;19924;-80
2022/12/29 02:10:26;;;;;;;;;;;6.40;99.90;;;;;;5097613;28;19916;-81
2022/12/29 02:12:52;;;;;;;;;;;6.30;99.90;;;;;;5115462;28;20002;-81
2022/12/29 02:15:21;;;;;;;;;;;6.30;99.90;;;;;;5116140;28;20007;-79
2022/12/29 02:18:05;;;;;;;;;;;6.30;99.90;;;;;;5115844;28;19952;-83
2022/12/29 02:21:06;;;;;;;;;;;6.40;99.90;;;;;;5098620;28;19955;-79
2022/12/29 02:23:31;;;;;;;;;;;6.30;99.90;;;;;;4997055;28;20385;-80
2022/12/29 02:26:00;;;;;;;;;;;6.40;99.90;;;;;;5079597;28;19908;-79
2022/12/29 02:28:44;;;;;;;;;;;6.40;99.90;;;;;;5098226;28;19934;-79
2022/12/29 02:31:28;;;;;;;;;;;6.30;99.90;;;;;;5098216;28;19908;-79
2022/12/29 02:34:10;;;;;;;;;;;6.40;99.90;;;;;;5098617;28;19969;-79
2022/12/29 02:36:54;;;;;;;;;;;6.40;99.90;;;;;;5098132;28;19926;-79
2022/12/29 02:39:37;;;;;;;;;;;6.40;99.90;;;;;;5097036;28;19912;-78
2022/12/29 02:42:05;;;;;;;;;;;6.40;99.90;;;;;;5110324;28;19900;-80
2022/12/29 02:44:34;;;;;;;;;;;6.40;99.90;;;;;;5117902;28;19908;-83
2022/12/29 02:46:59;;;;;;;;;;;6.40;99.90;;;;;;5099693;28;19941;-80
2022/12/29 02:49:32;;;;;;;;;;;6.50;99.90;;;;;;5117861;28;19980;-79
2022/12/29 02:51:57;;;;;;;;;;;6.50;99.90;;;;;;5117878;28;19938;-84
2022/12/29 02:54:41;;;;;;;;;;;6.50;99.90;;;;;;5091021;28;19920;-79
2022/12/29 02:57:10;;;;;;;;;;;6.50;99.90;;;;;;5094183;28;19912;-77
2022/12/29 02:59:35;;;;;;;;;;;6.50;99.90;;;;;;5094574;28;19908;-79
2022/12/29 03:02:27;;;;;;;;;;;6.50;99.90;;;;;;5093884;28;19914;-79
2022/12/29 03:05:11;;;;;;;;;;;6.60;99.90;;;;;;5069477;28;20337;-79
2022/12/29 03:07:36;;;;;;;;;;;6.50;99.90;;;;;;5093991;28;19926;-78
2022/12/29 03:10:20;;;;;;;;;;;6.60;99.90;;;;;;5093743;28;19923;-79
2022/12/29 03:18:25;;;;;;;;;;;6.60;99.90;;;;;;5094151;28;19961;-78
2022/12/29 03:20:53;;;;;;;;;;;6.70;99.90;;;;;;5075594;28;19953;-83
2022/12/29 03:23:19;;;;;;;;;;;6.70;99.90;;;;;;5094530;28;20002;-79
2022/12/29 03:25:50;;;;;;;;;;;6.70;99.90;;;;;;5093795;28;19908;-79
2022/12/29 03:28:23;;;;;;;;;;;6.70;99.90;;;;;;5093316;28;19908;-79
2022/12/29 03:30:49;;;;;;;;;;;6.70;99.90;;;;;;5092975;28;19916;-79
2022/12/29 03:33:20;;;;;;;;;;;6.70;99.90;;;;;;5092942;28;19908;-79
2022/12/29 03:35:47;;;;;;;;;;;6.70;99.90;;;;;;5096060;28;19915;-79
2022/12/29 03:38:18;;;;;;;;;;;6.70;99.90;;;;;;5112721;28;19976;-80
2022/12/29 03:40:46;;;;;;;;;;;6.70;99.90;;;;;;5113582;28;19914;-79
2022/12/29 03:43:12;;;;;;;;;;;6.60;99.90;;;;;;5113303;28;19959;-80
2022/12/29 03:45:38;;;;;;;;;;;6.70;99.90;;;;;;5113921;28;19991;-79
2022/12/29 03:48:03;;;;;;;;;;;6.70;99.90;;;;;;5112912;28;20274;-80
2022/12/29 03:50:29;;;;;;;;;;;6.70;99.90;;;;;;5113572;28;20365;-80
2022/12/29 03:52:55;;;;;;;;;;;6.70;99.90;;;;;;5097210;28;19987;-83
2022/12/29 03:55:20;;;;;;;;;;;6.70;99.90;;;;;;5117088;28;19951;-79
2022/12/29 03:57:46;;;;;;;;;;;6.70;99.90;;;;;;5113382;28;19912;-80
2022/12/29 04:00:11;;;;;;;;;;;6.70;99.90;;;;;;5112961;28;19914;-79
2022/12/29 04:02:37;;;;;;;;;;;6.70;99.90;;;;;;5113007;28;20365;-79
2022/12/29 04:05:03;;;;;;;;;;;6.70;99.90;;;;;;5094592;28;20019;-79
2022/12/29 04:07:28;;;;;;;;;;;6.70;99.90;;;;;;5113354;28;19965;-78
2022/12/29 04:09:54;;;;;;;;;;;6.70;99.90;;;;;;5113210;28;20443;-85
2022/12/29 04:12:19;;;;;;;;;;;6.60;99.90;;;;;;5104237;28;19939;-79
2022/12/29 04:14:45;;;;;;;;;;;6.60;99.90;;;;;;5092533;28;19974;-80
2022/12/29 04:17:10;;;;;;;;;;;6.60;99.90;;;;;;5091985;28;19908;-80
2022/12/29 04:19:36;;;;;;;;;;;6.60;99.90;;;;;;5092876;28;19919;-81
2022/12/29 04:22:02;;;;;;;;;;;6.60;99.90;;;;;;5092124;28;20361;-81
2022/12/29 04:24:27;;;;;;;;;;;6.60;99.90;;;;;;5092482;28;19909;-82
2022/12/29 04:26:53;;;;;;;;;;;6.60;99.90;;;;;;5074208;28;19908;-81
2022/12/29 04:29:18;;;;;;;;;;;6.70;99.90;;;;;;5091930;28;19923;-80
2022/12/29 04:31:44;;;;;;;;;;;6.70;99.90;;;;;;5092357;28;19973;-79
2022/12/29 04:34:09;;;;;;;;;;;6.60;99.90;;;;;;5091360;28;19944;-80
2022/12/29 04:36:35;;;;;;;;;;;6.60;99.90;;;;;;5092297;28;19919;-79
2022/12/29 04:39:01;;;;;;;;;;;6.60;99.90;;;;;;5073334;28;19940;-79
2022/12/29 04:41:26;;;;;;;;;;;6.60;99.90;;;;;;5093322;28;19962;-81
2022/12/29 04:43:52;;;;;;;;;;;6.70;99.90;;;;;;5098405;28;19991;-78
2022/12/29 04:46:17;;;;;;;;;;;6.60;99.90;;;;;;5096466;28;19912;-79
2022/12/29 04:48:43;;;;;;;;;;;6.60;99.90;;;;;;5092503;28;19920;-78
2022/12/29 04:51:09;;;;;;;;;;;6.60;99.90;;;;;;5091810;28;20021;-79
2022/12/29 04:53:34;;;;;;;;;;;6.50;99.90;;;;;;5092430;28;19908;-78
2022/12/29 04:56:00;;;;;;;;;;;6.50;99.90;;;;;;5091857;28;20365;-80
2022/12/29 04:58:25;;;;;;;;;;;6.50;99.90;;;;;;5074424;28;19915;-79
2022/12/29 05:00:51;;;;;;;;;;;6.50;99.90;;;;;;5092875;28;19915;-79
2022/12/29 05:03:17;;;;;;;;;;;6.50;99.90;;;;;;5091526;28;19912;-79
2022/12/29 05:05:43;;;;;;;;;;;6.50;99.90;;;;;;5091949;28;19930;-79
2022/12/29 05:08:08;;;;;;;;;;;6.50;99.90;;;;;;5091341;28;19927;-79
2022/12/29 05:10:34;;;;;;;;;;;6.50;99.90;;;;;;5092077;28;19920;-79
2022/12/29 05:13:00;;;;;;;;;;;6.60;99.90;;;;;;5091393;28;19999;-84
2022/12/29 05:15:26;;;;;;;;;;;6.60;99.90;;;;;;5091969;28;19938;-80
2022/12/29 05:17:51;;;;;;;;;;;6.60;99.90;;;;;;5074184;28;19916;-81
2022/12/29 05:20:17;;;;;;;;;;;6.60;99.90;;;;;;5091232;28;19930;-79
2022/12/29 05:22:43;;;;;;;;;;;6.60;99.90;;;;;;5091527;28;19954;-80
2022/12/29 05:25:09;;;;;;;;;;;6.60;99.90;;;;;;5090643;28;19908;-80
2022/12/29 05:27:34;;;;;;;;;;;6.50;99.90;;;;;;5091139;28;19933;-80
2022/12/29 05:30:00;;;;;;;;;;;6.50;99.90;;;;;;5091274;28;20379;-84
2022/12/29 05:32:25;;;;;;;;;;;6.40;99.90;;;;;;5094353;28;19909;-79
2022/12/29 05:34:51;;;;;;;;;;;6.40;99.90;;;;;;5093773;28;19998;-79
2022/12/29 05:37:16;;;;;;;;;;;6.40;99.90;;;;;;5090622;28;19923;-81
2022/12/29 05:39:42;;;;;;;;;;;6.30;99.90;;;;;;5073405;28;20253;-80
2022/12/29 05:42:08;;;;;;;;;;;6.30;99.90;;;;;;5090945;28;20409;-80
2022/12/29 05:44:33;;;;;;;;;;;6.20;99.90;;;;;;5091178;28;19908;-80
2022/12/29 05:46:59;;;;;;;;;;;6.30;99.90;;;;;;5091705;28;19908;-82
2022/12/29 05:49:24;;;;;;;;;;;6.20;99.90;;;;;;5091395;28;19924;-79
2022/12/29 05:51:50;;;;;;;;;;;6.20;99.90;;;;;;5091645;28;19915;-79
2022/12/29 05:54:15;;;;;;;;;;;6.20;99.90;;;;;;5090788;28;20280;-79
2022/12/29 05:56:41;;;;;;;;;;;6.20;99.90;;;;;;5090875;28;20058;-80
2022/12/29 05:59:07;;;;;;;;;;;6.20;99.90;;;;;;5090662;28;19919;-81
2022/12/29 06:01:34;;;;;;;;;;;6.20;99.90;;;;;;5091322;28;19973;-79
2022/12/29 06:03:59;;;;;;;;;;;6.20;99.90;;;;;;5091114;28;20418;-78
2022/12/29 06:06:25;;;;;;;;;;;6.20;99.90;;;;;;5091537;28;19912;-79
2022/12/29 06:08:50;;;;;;;;;;;6.20;99.90;;;;;;5091405;28;19952;-80
2022/12/29 06:11:16;;;;;;;;;;;6.20;99.90;;;;;;5091619;28;20277;-80
2022/12/29 06:13:42;;;;;;;;;;;6.20;99.90;;;;;;5091788;28;19912;-79
2022/12/29 06:16:08;;;;;;;;;;;6.20;99.90;;;;;;5072751;28;19908;-80
2022/12/29 06:18:33;;;;;;;;;;;6.20;99.90;;;;;;5091505;28;19915;-79
2022/12/29 06:21:00;;;;;;;;;;;6.20;99.90;;;;;;5093852;28;19984;-79
2022/12/29 06:23:26;;;;;;;;;;;6.20;99.90;;;;;;5093618;28;19908;-79
2022/12/29 06:25:52;;;;;;;;;;;6.20;99.90;;;;;;5090924;28;20341;-81
2022/12/29 06:28:17;;;;;;;;;;;6.30;99.90;;;;;;5091198;28;19919;-79
2022/12/29 06:30:44;;;;;;;;;;;6.30;99.90;;;;;;5091079;28;19938;-80
2022/12/29 06:33:09;;;;;;;;;;;6.20;99.90;;;;;;5091597;28;19909;-80
2022/12/29 06:35:35;;;;;;;;;;;6.20;99.90;;;;;;5095585;28;19915;-79
2022/12/29 06:38:01;;;;;;;;;;;6.20;99.90;;;;;;5115250;28;20449;-80
2022/12/29 06:40:26;;;;;;;;;;;6.20;99.90;;;;;;5115411;28;19912;-80
2022/12/29 06:42:52;;;;;;;;;;;6.20;99.90;;;;;;5115885;28;20306;-80
2022/12/29 06:45:17;;;;;;;;;;;6.20;99.90;;;;;;5115150;28;19986;-79
2022/12/29 06:47:43;;;;;;;;;;;6.20;99.90;;;;;;5115391;28;19918;-79
2022/12/29 06:50:08;;;;;;;;;;;6.20;99.90;;;;;;5115152;28;20267;-80
2022/12/29 06:52:34;;;;;;;;;;;6.30;99.90;;;;;;5115763;28;19907;-80
2022/12/29 06:54:59;;;;;;;;;;;6.30;99.90;;;;;;5097571;28;19912;-80
2022/12/29 06:57:26;;;;;;;;;;;6.30;99.90;;;;;;5116047;28;19911;-80
2022/12/29 06:59:52;;;;;;;;;;;6.30;99.90;;;;;;5116662;28;19908;-80
2022/12/29 07:02:20;;;;;;;;;;;6.40;99.90;;;;;;5114712;28;19915;-79
2022/12/29 07:04:46;;;;;;;;;;;6.40;99.90;;;;;;5118892;28;19919;-79
2022/12/29 07:07:11;;;;;;;;;;;6.30;99.90;;;;;;5096338;28;20052;-80
2022/12/29 07:09:37;;;;;;;;;;;6.30;99.90;;;;;;5114655;28;19916;-79
2022/12/29 07:12:02;;;;;;;;;;;6.30;99.90;;;;;;5119598;28;19908;-78
2022/12/29 07:14:28;;;;;;;;;;;6.30;99.90;;;;;;5132863;28;19916;-80
2022/12/29 07:16:54;;;;;;;;;;;6.30;99.90;;;;;;5135909;27;19914;-79
2022/12/29 07:19:20;;;;;;;;;;;6.20;99.90;;;;;;5137906;28;19922;-79
2022/12/29 07:21:45;;;;;;;;;;;6.20;99.90;;;;;;5136694;28;20002;-79
2022/12/29 07:24:11;;;;;;;;;;;6.20;99.90;;;;;;5131239;28;19912;-82
2022/12/29 07:26:37;;;;;;;;;;;6.20;99.90;;;;;;5135673;28;19940;-78
2022/12/29 07:29:03;;;;;;;;;;;6.10;99.90;;;;;;5112191;28;19919;-79
2022/12/29 07:31:29;;;;;;;;;;;6.10;99.90;;;;;;5122069;28;19908;-80
2022/12/29 07:33:54;;;;;;;;;;;6.10;99.90;;;;;;5121658;28;19965;-81
2022/12/29 07:36:20;;;;;;;;;;;6.10;99.90;;;;;;5120028;28;20324;-80
2022/12/29 07:38:45;;;;;;;;;;;6.10;99.90;;;;;;5118798;28;19907;-81
2022/12/29 07:41:11;;;;;;;;;;;6.10;99.90;;;;;;5118490;28;19908;-81
2022/12/29 07:43:36;;;;;;;;;;;6.10;99.90;;;;;;5118807;28;19996;-81
2022/12/29 07:46:02;;;;;;;;;;;6.00;99.90;;;;;;5116440;28;19908;-80
2022/12/29 07:48:28;;;;;;;;;;;6.00;99.90;;;;;;5117311;28;20020;-81
2022/12/29 07:50:53;;;;;;;;;;;6.00;99.90;;;;;;5117772;28;19980;-80
2022/12/29 07:53:19;;;;;;;;;;;6.00;99.90;;;;;;5116658;28;20279;-81
2022/12/29 07:55:45;;;;;;;;;;;6.00;99.90;;;;;;5117076;28;19907;-81
2022/12/29 07:58:10;;;;;;;;;;;6.00;99.90;;;;;;5116738;28;19926;-84
2022/12/29 08:00:36;;;;;;;;;;;6.10;99.90;;;;;;5097891;28;19911;-81
2022/12/29 08:03:01;;;;;;;;;;;6.10;99.90;;;;;;5116267;28;20221;-81
2022/12/29 08:05:27;;;;;;;;;;;6.10;99.90;;;;;;5116285;28;19955;-82
2022/12/29 08:07:52;;;;;;;;;;;6.10;99.90;;;;;;5114949;28;20382;-81
2022/12/29 08:10:18;;;;;;;;;;;6.10;99.90;;;;;;5115293;28;19915;-81
2022/12/29 08:12:44;;;;;;;;;;;6.10;99.90;;;;;;5116377;28;19907;-81
2022/12/29 08:15:10;;;;;;;;;;;6.00;99.90;;;;;;5116327;28;19953;-85
2022/12/29 08:17:36;;;;;;;;;;;6.00;99.90;;;;;;5116047;28;20048;-81
2022/12/29 08:20:02;;;;;;;;;;;5.90;99.90;;;;;;5116019;28;20003;-83
2022/12/29 08:22:28;;;;;;;;;;;5.90;99.90;;;;;;5115415;28;20006;-82
2022/12/29 08:24:53;;;;;;;;;;;5.90;99.90;;;;;;5103120;28;20361;-81
2022/12/29 08:27:19;;;;;;;;;;;5.90;99.90;;;;;;5099850;28;19924;-83
2022/12/29 08:29:44;;;;;;;;;;;5.90;99.90;;;;;;5100933;28;19971;-81
2022/12/29 08:32:11;;;;;;;;;;;6.00;99.90;;;;;;5100361;28;20376;-81
2022/12/29 08:34:36;;;;;;;;;;;6.00;99.90;;;;;;5076451;28;20348;-81
2022/12/29 08:37:02;;;;;;;;;;;6.00;99.90;;;;;;5094854;28;20008;-81
2022/12/29 08:39:27;;;;;;;;;;;6.00;99.90;;;;;;5093709;28;19916;-81
2022/12/29 08:41:53;;;;;;;;;;;5.90;99.90;;;;;;5094332;28;19909;-81
2022/12/29 08:44:18;;;;;;;;;;;5.90;99.90;;;;;;5093630;28;19908;-81
2022/12/29 08:46:44;;;;;;;;;;;5.80;99.90;;;;;;5093188;28;20398;-81
2022/12/29 08:49:09;;;;;;;;;;;5.90;99.90;;;;;;5100318;28;19920;-82
2022/12/29 08:51:35;;;;;;;;;;;5.90;99.90;;;;;;5086077;28;19928;-81
2022/12/29 08:54:01;;;;;;;;;;;5.80;99.90;;;;;;5104597;28;19907;-82
2022/12/29 08:56:26;;;;;;;;;;;5.80;99.90;;;;;;5100860;28;20336;-80
2022/12/29 08:58:52;;;;;;;;;;;5.70;99.90;;;;;;5095371;28;20034;-81
2022/12/29 09:01:18;;;;;;;;;;;5.70;99.90;;;;;;5107662;28;20005;-81
2022/12/29 09:03:44;;;;;;;;;;;5.70;99.90;;;;;;5112922;28;20283;-80
2022/12/29 09:06:10;;;;;;;;;;;5.70;99.90;;;;;;5094794;28;19908;-81
2022/12/29 09:08:35;;;;;;;;;;;5.70;99.90;;;;;;5111994;28;19924;-80
2022/12/29 09:11:15;;;;;;;;;;;5.80;99.90;;;;;;5112510;28;20012;-80
2022/12/29 09:13:41;;;;;;;;;;;5.80;99.90;;;;;;5112223;28;19908;-81
2022/12/29 09:16:07;;;;;;;;;;;5.80;99.90;;;;;;5112281;28;19919;-80
2022/12/29 09:18:32;;;;;;;;;;;5.80;99.90;;;;;;5112185;28;19961;-81
2022/12/29 09:20:59;;;;;;;;;;;5.70;99.90;;;;;;5112580;28;19947;-80
2022/12/29 09:23:25;;;;;;;;;;;5.70;99.90;;;;;;5107370;28;19912;-80
2022/12/29 09:25:50;;;;;;;;;;;5.70;99.90;;;;;;5082296;28;19909;-80
2022/12/29 09:28:16;;;;;;;;;;;5.80;99.90;;;;;;5105525;28;19918;-84
2022/12/29 09:30:42;;;;;;;;;;;5.70;99.90;;;;;;5111926;28;19911;-82
2022/12/29 09:33:07;;;;;;;;;;;5.80;99.90;;;;;;5112392;28;20289;-83
2022/12/29 09:35:33;;;;;;;;;;;5.80;99.90;;;;;;5110119;28;19908;-82
2022/12/29 09:37:58;;;;;;;;;;;5.70;99.90;;;;;;5094090;28;19916;-82
2022/12/29 09:40:29;;;;;;;;;;;5.70;99.90;;;;;;5099997;28;20051;-82
2022/12/29 09:43:06;;;;;;;;;;;5.70;99.90;;;;;;5113566;28;20323;-82
2022/12/29 09:45:40;;;;;;;;;;;5.80;99.90;;;;;;5112231;28;19919;-82
2022/12/29 09:48:11;;;;;;;;;;;5.80;99.90;;;;;;5112039;28;19915;-82
2022/12/29 09:50:37;;;;;;;;;;;5.80;99.90;;;;;;5111400;28;20093;-82
2022/12/29 09:53:08;;;;;;;;;;;5.80;99.90;;;;;;5112296;28;19916;-82
2022/12/29 09:55:38;;;;;;;;;;;5.70;99.90;;;;;;5111247;28;19908;-80
2022/12/29 09:58:05;;;;;;;;;;;5.80;99.90;;;;;;5092969;28;19908;-82
2022/12/29 10:00:57;;;;;;;;;;;5.80;99.90;;;;;;5099806;28;19907;-81
2022/12/29 10:03:24;;;;;;;;;;;5.80;99.90;;;;;;5096053;28;19931;-82
2022/12/29 10:05:53;;;;;;;;;;;6.00;99.90;;;;;;5092476;28;19908;-81
2022/12/29 10:08:26;;;;;;;;;;;6.00;99.90;;;;;;5056143;28;20261;-84
2022/12/29 10:10:55;;;;;;;;;;;6.10;99.90;;;;;;5095566;28;20319;-82
2022/12/29 10:13:39;;;;;;;;;;;6.10;99.90;;;;;;5095660;28;20362;-83
2022/12/29 10:16:09;;;;;;;;;;;6.10;99.90;;;;;;5095375;28;19908;-82
2022/12/29 10:18:38;;;;;;;;;;;6.00;99.90;;;;;;5095171;28;19908;-82
2022/12/29 10:21:03;;;;;;;;;;;6.00;99.90;;;;;;5095674;28;19919;-83
2022/12/29 10:23:35;;;;;;;;;;;6.10;99.90;;;;;;5094743;28;19908;-83
2022/12/29 10:26:01;;;;;;;;;;;6.20;99.90;;;;;;5095731;28;19912;-83
2022/12/29 10:28:36;;;;;;;;;;;6.20;99.90;;;;;;5094323;28;19912;-82
2022/12/29 10:31:03;;;;;;;;;;;6.20;99.90;;;;;;5096111;28;20361;-82
2022/12/29 10:33:35;;;;;;;;;;;6.30;99.90;;;;;;5076901;28;19908;-83
2022/12/29 10:36:10;;;;;;;;;;;6.30;99.90;;;;;;5095288;28;19957;-83
2022/12/29 10:38:39;;;;;;;;;;;6.30;99.90;;;;;;5094684;28;19908;-84
2022/12/29 10:41:16;;;;;;;;;;;6.40;99.90;;;;;;5094850;28;20369;-84
2022/12/29 10:43:53;;;;;;;;;;;6.40;99.90;;;;;;5094931;28;20809;-85
2022/12/29 10:46:20;;;;;;;;;;;6.50;99.90;;;;;;5095726;28;20006;-84
2022/12/29 10:48:46;;;;;;;;;;;6.40;99.90;;;;;;5076804;28;20373;-84
2022/12/29 10:51:18;;;;;;;;;;;6.40;99.90;;;;;;5077372;28;19919;-85
2022/12/29 10:54:03;;;;;;;;;;;6.40;99.90;;;;;;5097715;28;20241;-85
2022/12/29 10:56:32;;;;;;;;;;;6.30;99.90;;;;;;5096059;28;19908;-84
2022/12/29 10:58:59;;;;;;;;;;;6.30;99.90;;;;;;5078054;28;19908;-86
2022/12/29 11:01:31;;;;;;;;;;;6.30;99.90;;;;;;5097254;28;20380;-85
2022/12/29 11:04:16;;;;;;;;;;;6.20;99.90;;;;;;5097122;28;19993;-83
2022/12/29 11:06:42;;;;;;;;;;;6.20;99.90;;;;;;5095820;28;20407;-86
2022/12/29 11:09:16;;;;;;;;;;;6.20;99.90;;;;;;5096777;28;19920;-86
2022/12/29 11:11:42;;;;;;;;;;;6.30;99.90;;;;;;5095877;28;19912;-86
2022/12/29 11:14:17;;;;;;;;;;;6.30;99.90;;;;;;5095654;28;19908;-86
2022/12/29 11:16:44;;;;;;;;;;;6.30;99.90;;;;;;5095706;28;19994;-86
2022/12/29 11:19:23;;;;;;;;;;;6.40;99.90;;;;;;5095770;28;19915;-83
2022/12/29 11:21:49;;;;;;;;;;;6.30;99.90;;;;;;5094042;28;19951;-81
2022/12/29 11:24:22;;;;;;;;;;;6.30;99.90;;;;;;5095497;28;19947;-83
2022/12/29 11:26:53;;;;;;;;;;;6.30;99.90;;;;;;5095161;28;19908;-83
2022/12/29 11:29:36;;;;;;;;;;;6.30;99.90;;;;;;5094990;28;20375;-82
2022/12/29 11:32:10;;;;;;;;;;;6.30;99.90;;;;;;5095434;28;19908;-81
2022/12/29 11:34:35;;;;;;;;;;;6.30;99.90;;;;;;5096017;28;20003;-82
2022/12/29 11:37:04;;;;;;;;;;;6.30;99.90;;;;;;5077972;28;20299;-82
2022/12/29 11:39:32;;;;;;;;;;;6.20;99.90;;;;;;5095473;28;19948;-83
2022/12/29 11:41:57;;;;;;;;;;;6.20;99.90;;;;;;5095057;28;19908;-81
2022/12/29 11:44:23;;;;;;;;;;;6.20;99.90;;;;;;5094085;28;20257;-81
2022/12/29 11:46:51;;;;;;;;;;;6.20;99.90;;;;;;5076068;28;20361;-81
2022/12/29 11:49:24;;;;;;;;;;;6.20;99.90;;;;;;5095031;28;19973;-81
2022/12/29 11:51:50;;;;;;;;;;;6.20;99.90;;;;;;5094545;28;20377;-81
2022/12/29 11:54:22;;;;;;;;;;;6.20;99.90;;;;;;5076326;28;19912;-81
2022/12/29 11:56:48;;;;;;;;;;;6.30;99.90;;;;;;5093995;28;19919;-81
2022/12/29 11:59:36;;;;;;;;;;;6.20;99.90;;;;;;5093793;28;19908;-81
2022/12/29 12:02:20;;;;;;;;;;;6.20;99.90;;;;;;5093792;28;19935;-80
2022/12/29 12:04:48;;;;;;;;;;;6.20;99.90;;;;;;5075426;28;19961;-81
2022/12/29 12:07:16;;;;;;;;;;;6.30;99.90;;;;;;5094206;28;19915;-81
2022/12/29 12:09:45;;;;;;;;;;;6.30;99.90;;;;;;5093657;28;19927;-80
2022/12/29 12:12:15;;;;;;;;;;;6.30;99.90;;;;;;5094022;28;19909;-80
2022/12/29 12:14:46;;;;;;;;;;;6.30;99.90;;;;;;5094461;28;19960;-80
2022/12/29 12:17:14;;;;;;;;;;;6.40;99.90;;;;;;5076557;28;19909;-80
2022/12/29 12:19:43;;;;;;;;;;;6.40;99.90;;;;;;5093424;28;19919;-80
2022/12/29 12:22:27;;;;;;;;;;;6.40;99.90;;;;;;5096750;28;19928;-79
2022/12/29 12:24:57;;;;;;;;;;;6.50;99.90;;;;;;5115037;28;19923;-82
2022/12/29 12:27:23;;;;;;;;;;;6.50;99.90;;;;;;5115860;28;19942;-81
2022/12/29 12:30:03;;;;;;;;;;;6.50;99.90;;;;;;5095865;28;20061;-81
2022/12/29 12:32:32;;;;;;;;;;;6.60;99.90;;;;;;5096734;28;19900;-85
2022/12/29 12:34:57;;;;;;;;;;;6.60;99.90;;;;;;5116151;28;19950;-80
2022/12/29 12:37:26;;;;;;;;;;;6.60;99.90;;;;;;5112134;28;19913;-79
2022/12/29 12:40:03;;;;;;;;;;;6.70;99.90;;;;;;5097223;28;19908;-79
2022/12/29 12:42:29;;;;;;;;;;;6.80;99.90;;;;;;5098744;28;19917;-85
2022/12/29 12:44:57;;;;;;;;;;;6.90;99.90;;;;;;5095306;28;20395;-79
2022/12/29 12:47:32;;;;;;;;;;;7.00;99.90;;;;;;5097549;28;19908;-79
2022/12/29 12:49:58;;;;;;;;;;;7.10;99.90;;;;;;5094373;28;19927;-80
2022/12/29 12:52:36;;;;;;;;;;;7.10;99.90;;;;;;5112227;28;20274;-79
2022/12/29 12:55:17;;;;;;;;;;;7.20;99.90;;;;;;5111978;28;20003;-79
2022/12/29 12:57:55;;;;;;;;;;;7.20;99.90;;;;;;5111829;28;19970;-79
2022/12/29 13:00:23;;;;;;;;;;;7.20;99.90;;;;;;5111468;28;19908;-79
2022/12/29 13:03:07;;;;;;;;;;;7.10;99.90;;;;;;5111282;28;20405;-80
2022/12/29 13:05:51;;;;;;;;;;;7.10;99.90;;;;;;5110853;28;19912;-80
2022/12/29 13:08:35;;;;;;;;;;;7.00;99.90;;;;;;5111629;28;20328;-80
2022/12/29 13:11:00;;;;;;;;;;;6.90;99.90;;;;;;5111874;28;19966;-79
2022/12/29 13:13:28;;;;;;;;;;;6.90;99.90;;;;;;5110137;28;21425;-80
2022/12/29 13:16:06;;;;;;;;;;;6.90;99.90;;;;;;5111121;28;19908;-79
2022/12/29 13:18:44;;;;;;;;;;;6.80;99.90;;;;;;5111130;28;20025;-81
2022/12/29 13:21:30;;;;;;;;;;;6.90;99.90;;;;;;5108196;28;20014;-79
2022/12/29 13:23:55;;;;;;;;;;;6.90;99.90;;;;;;5081082;28;19915;-84
2022/12/29 13:26:24;;;;;;;;;;;7.00;99.90;;;;;;5099247;28;19908;-79
2022/12/29 13:28:57;;;;;;;;;;;7.00;99.90;;;;;;5092754;28;20131;-79
2022/12/29 13:31:35;;;;;;;;;;;6.90;99.90;;;;;;5083486;28;20070;-79
2022/12/29 13:34:01;;;;;;;;;;;6.90;99.90;;;;;;5100608;28;19912;-80
2022/12/29 13:36:26;;;;;;;;;;;6.80;99.90;;;;;;5102214;28;19915;-79
2022/12/29 13:38:58;;;;;;;;;;;6.80;99.90;;;;;;5110546;28;20007;-80
2022/12/29 13:41:30;;;;;;;;;;;6.80;99.90;;;;;;5110980;28;19907;-80
2022/12/29 13:43:55;;;;;;;;;;;6.80;99.90;;;;;;5098550;28;20365;-82
2022/12/29 13:46:26;;;;;;;;;;;6.80;99.90;;;;;;5101846;28;19912;-80
2022/12/29 13:48:58;;;;;;;;;;;6.80;99.90;;;;;;5099143;28;19934;-79
2022/12/29 13:51:24;;;;;;;;;;;6.70;99.90;;;;;;5100427;28;19918;-79
2022/12/29 13:53:56;;;;;;;;;;;6.70;99.90;;;;;;5094971;28;21244;-79
2022/12/29 13:56:35;;;;;;;;;;;6.70;99.90;;;;;;5097863;28;19912;-80
2022/12/29 13:59:16;;;;;;;;;;;6.60;99.90;;;;;;5098888;28;20018;-80
2022/12/29 14:01:58;;;;;;;;;;;6.60;99.90;;;;;;5105017;28;19912;-77
2022/12/29 14:04:25;;;;;;;;;;;6.60;99.90;;;;;;5111332;28;19915;-78
2022/12/29 14:07:04;;;;;;;;;;;6.60;99.90;;;;;;5091948;28;20411;-80
2022/12/29 14:09:42;;;;;;;;;;;6.60;99.90;;;;;;5110428;28;19920;-85
2022/12/29 14:12:22;;;;;;;;;;;6.50;99.90;;;;;;5111425;28;20051;-80
2022/12/29 14:14:49;;;;;;;;;;;6.50;99.90;;;;;;5110390;28;19990;-79
2022/12/29 14:17:18;;;;;;;;;;;6.50;99.90;;;;;;5110814;28;19911;-78
2022/12/29 14:19:44;;;;;;;;;;;6.40;99.90;;;;;;5110883;28;19953;-78
2022/12/29 14:22:10;;;;;;;;;;;6.40;99.90;;;;;;5111415;28;20316;-78
2022/12/29 14:24:39;;;;;;;;;;;6.50;99.90;;;;;;5110920;28;19908;-79
2022/12/29 14:27:10;;;;;;;;;;;6.40;99.90;;;;;;5111614;28;19908;-79
2022/12/29 14:29:39;;;;;;;;;;;6.40;99.90;;;;;;5111014;28;19949;-78
2022/12/29 14:32:23;;;;;;;;;;;6.40;99.90;;;;;;5111586;28;19991;-79
2022/12/29 14:34:49;;;;;;;;;;;6.30;99.90;;;;;;5092521;28;20225;-79
2022/12/29 14:37:33;;;;;;;;;;;6.30;99.90;;;;;;5111177;28;20341;-78
2022/12/29 14:40:05;;;;;;;;;;;6.30;99.90;;;;;;5111450;28;20061;-79
2022/12/29 14:42:31;;;;;;;;;;;6.20;99.90;;;;;;5111396;28;20015;-84
2022/12/29 14:45:10;;;;;;;;;;;6.20;99.90;;;;;;5092163;28;20312;-79
2022/12/29 14:47:37;;;;;;;;;;;6.20;99.90;;;;;;5110680;28;19911;-80
2022/12/29 14:50:26;;;;;;;;;;;6.10;99.90;;;;;;5092849;28;19938;-78
2022/12/29 14:52:53;;;;;;;;;;;6.10;99.90;;;;;;5096567;28;20383;-78
2022/12/29 14:55:39;;;;;;;;;;;6.10;99.90;;;;;;5111390;28;20031;-79
2022/12/29 14:58:06;;;;;;;;;;;6.10;99.90;;;;;;5114749;28;19908;-78
2022/12/29 15:00:33;;;;;;;;;;;6.10;99.90;;;;;;5114730;28;19915;-78
2022/12/29 15:03:13;;;;;;;;;;;6.10;99.90;;;;;;5114070;28;19915;-79
2022/12/29 15:05:46;;;;;;;;;;;6.10;99.90;;;;;;5114086;28;19908;-79
2022/12/29 15:08:12;;;;;;;;;;;6.10;99.90;;;;;;5114389;28;19977;-78
2022/12/29 15:10:42;;;;;;;;;;;6.10;99.90;;;;;;5113650;28;19915;-79
2022/12/29 15:13:14;;;;;;;;;;;6.10;99.90;;;;;;5095961;28;20036;-78
2022/12/29 15:15:40;;;;;;;;;;;6.10;99.90;;;;;;5113678;28;19914;-79